Terminal Aerodrome Forecast
Issued by NWS Jackson, KY

Home | Current Version | Previous Version | Graphics & Text | Print | Product List | Glossary On
Versions: 1 2 3 4 5 6 7 8 9 10 11 12 13 14 15 16 17 18
000
FTUS43 KJKL 271736
TAFLOZ
TAF
KLOZ 271736Z 2718/2818 21007KT P6SM SCT035
     FM272300 VRB03KT P6SM VCTS SCT045CB BKN200
     FM280300 VRB03KT P6SM BKN100=

USA.gov is the U.S. government's official web portal to all federal, state and local government web resources and services.